Nearby METAR Reports

 

KSJC - San Jose, California, USA
Distance from station: NE 9mi, 14km
Updated: Wed, 07/17/19 7:53am
Partly cloudy
Partly cloudy
 Wind from SSE
Wind: SSE 12 mph , 19 km/h
Temperature: 59°F , 15°C
Dew Point: 55°F , 13°C
Humidity: 88%
Barometer: 29.90 inHg , 1012.5 hPa
Clouds: Partly cloudy
Visibility: 10 miles , 16 km
Cloud details: Few Clouds 800 ft
Partly cloudy 8000 ft
2019/07/17 13:53 KSJC 171353Z 15010KT 10SM FEW008 SCT080 15/13 A2990 RMK AO2 SLP124 T01500128 $
KNUQ - Moffett Nas/Mtn, California, USA
Distance from station: N 9mi, 14km
Updated: Wed, 07/17/19 7:56am
Clear
Clear
 Wind from SSE
Wind: SSE 6 mph , 9 km/h
Temperature: 61°F , 16°C
Dew Point: 54°F , 12°C
Humidity: 77%
Barometer: 29.91 inHg , 1012.9 hPa
Clouds: Clear
Visibility: 10 miles , 16 km
2019/07/17 13:56 KNUQ 171356Z 16005KT 10SM CLR 16/12 A2991 RMK AO2 SLP130 T01610117 $
 
KPAO - Palo Alto, California, USA
Distance from station: NNW 14mi, 23km
Updated: Wed, 07/17/19 7:47am
Few Clouds
Few Clouds
 Wind from SE
Wind: SE 5 mph , 7 km/h
Temperature: 59°F , 15°C
Dew Point: 54°F , 12°C
Humidity: 82%
Barometer: 29.91 inHg , 1012.9 hPa
Clouds: Few Clouds
Visibility: 10 miles , 16 km
Cloud details: Few Clouds 3000 ft
2019/07/17 13:47 KPAO 171347Z 14004KT 10SM FEW030 15/12 A2991
KRHV - San Jose/Reid, California, USA
Distance from station: ENE 12mi, 19km
Updated: Wed, 07/17/19 7:47am
Few Clouds
Few Clouds
 Wind from SSE
Wind: SSE 8 mph , 13 km/h
Temperature: 57°F , 14°C
Dew Point: 54°F , 12°C
Humidity: 88%
Barometer: 29.90 inHg , 1012.5 hPa
Clouds: Few Clouds
Visibility: 10 miles , 16 km
Cloud details: Few Clouds 2500 ft
2019/07/17 13:47 KRHV 171347Z 15007KT 10SM FEW025 14/12 A2990
 
KOAK - Oakland, California, USA
Distance from station: NNW 31mi, 50km
Updated: Wed, 07/17/19 7:53am
Overcast
Overcast
 Wind from calm
Wind: Calm
Temperature: 61°F , 16°C
Dew Point: 55°F , 13°C
Humidity: 83%
Barometer: 29.91 inHg , 1012.9 hPa
Clouds: Overcast
Visibility: 10 miles , 16 km
Cloud details: Overcast 1400 ft
2019/07/17 13:53 KOAK 171353Z 00000KT 10SM OVC014 16/13 A2991 RMK AO2 SLP126 T01610128
KSQL - San Carlos Airpo, California, USA
Distance from station: NW 21mi, 34km
Updated: Wed, 07/17/19 7:51am
Partly cloudy
Partly cloudy
 Wind from varies
Wind: varies 3 mph , 6 km/h
Temperature: 59°F , 15°C
Dew Point: 54°F , 12°C
Humidity: 82%
Barometer: 29.91 inHg , 1012.9 hPa
Clouds: Partly cloudy
Visibility: 10 miles , 16 km
Cloud details: Partly cloudy 1400 ft
2019/07/17 13:51 KSQL 171351Z VRB03KT 10SM SCT014 15/12 A2991
 
KSFO - San Francisco, California, USA
Distance from station: NW 30mi, 49km
Updated: Wed, 07/17/19 7:56am
Mostly cloudy
Mostly cloudy
 Wind from calm
Wind: Calm
Temperature: 61°F , 16°C
Dew Point: 54°F , 12°C
Humidity: 77%
Barometer: 29.90 inHg , 1012.5 hPa
Clouds: Mostly cloudy
Visibility: 9 miles , 14 km
Cloud details: Few Clouds 800 ft
Few Clouds 1400 ft
Mostly cloudy 16000 ft
2019/07/17 13:56 KSFO 171356Z 00000KT 9SM FEW008 FEW014 BKN160 16/12 A2990 RMK AO2 SLP123 T01610117
KE16 - San Martin, California, USA
Distance from station: ESE 27mi, 43km
Updated: Wed, 07/17/19 8:10am
Overcast
Overcast
 Wind from SE
Wind: SE 9 mph , 15 km/h
Temperature: 57°F , 14°C
Dew Point: 54°F , 12°C
Humidity: 88%
Barometer: 29.94 inHg , 1013.9 hPa
Clouds: Overcast
Visibility: 10 miles , 16 km
Cloud details: Overcast 1000 ft
2019/07/17 14:10 KE16 171410Z AUTO 13008KT 10SM OVC010 14/12 A2994 RMK AO2
 
KWVI - Watsonville, California, USA
Distance from station: SSE 27mi, 44km
Updated: Wed, 07/17/19 7:53am
Overcast
Overcast
 Wind from SSE
Wind: SSE 5 mph , 7 km/h
Temperature: 57°F , 14°C
Dew Point: 54°F , 12°C
Humidity: 88%
Barometer: 29.93 inHg , 1013.5 hPa
Clouds: Overcast
Visibility: 10 miles , 16 km
Cloud details: Overcast 900 ft
2019/07/17 13:53 KWVI 171353Z AUTO 15004KT 10SM OVC009 14/12 A2993 RMK AO2 RAE08 SLP134 P0000 T01390122
KHAF - Half Moon Bay, California, USA
Distance from station: WNW 31mi, 50km
Updated: Wed, 07/17/19 8:20am
Mist, Overcast
Mist, Overcast
 Wind from SSE
Wind: SSE 7 mph , 11 km/h
Temperature: 57°F , 14°C
Dew Point: 54°F , 12°C
Humidity: 88%
Barometer: 29.91 inHg , 1012.9 hPa
Summary: Mist
Clouds: Overcast
Visibility: 5 miles , 8 km
Cloud details: Overcast 800 ft
2019/07/17 14:20 KHAF 171420Z AUTO 16006KT 5SM BR OVC008 14/12 A2991 RMK AO2
 
KHWD - Hayward, California, USA
Distance from station: N 28mi, 44km
Updated: Wed, 07/17/19 8:18am
Few Clouds
Few Clouds
 Wind from SE
Wind: SE 6 mph , 9 km/h
Temperature: 61°F , 16°C
Dew Point: 54°F , 12°C
Humidity: 77%
Barometer: 29.90 inHg , 1012.5 hPa
Clouds: Few Clouds
Visibility: 10 miles , 16 km
Cloud details: Few Clouds 1400 ft
2019/07/17 14:18 KHWD 171418Z AUTO 14005KT 10SM FEW014 16/12 A2990 RMK AO2 T01610122
KLVK - Livermore, California, USA
Distance from station: NNE 31mi, 51km
Updated: Wed, 07/17/19 7:53am
Clear
Clear
 Wind from calm
Wind: Calm
Temperature: 59°F , 15°C
Dew Point: 54°F , 12°C
Humidity: 82%
Barometer: 29.89 inHg , 1012.2 hPa
Clouds: Clear
Visibility: 8 miles , 13 km
2019/07/17 13:53 KLVK 171353Z 00000KT 8SM CLR 15/12 A2989 RMK AO2 SLP118 T01500122